createdAt,value
2023-01-11T00:00:17.544Z,6.2
2023-01-11T00:01:24.609Z,6.2
2023-01-11T00:02:31.678Z,6.2
2023-01-11T00:03:38.907Z,6.2
2023-01-11T00:04:45.589Z,6.2
2023-01-11T00:05:52.848Z,6.2
2023-01-11T00:06:59.959Z,6.2
2023-01-11T00:08:06.517Z,6.2
2023-01-11T00:09:13.470Z,6.1
2023-01-11T00:10:20.601Z,6.1
2023-01-11T00:11:27.254Z,6.1
2023-01-11T00:12:34.409Z,6
2023-01-11T00:13:41.529Z,6.1
2023-01-11T00:14:48.138Z,6
2023-01-11T00:15:54.851Z,6.1
2023-01-11T00:17:02.099Z,6.1
2023-01-11T00:18:08.906Z,6.1
2023-01-11T00:19:16.056Z,6.1
2023-01-11T00:20:23.158Z,6.1
2023-01-11T00:21:29.787Z,6.1
2023-01-11T00:22:36.467Z,6.1
2023-01-11T00:23:43.617Z,6.1
2023-01-11T00:24:50.923Z,6.1
2023-01-11T00:25:57.907Z,6.2
2023-01-11T00:27:10.089Z,6.2
2023-01-11T00:28:17.093Z,6.2
2023-01-11T00:29:24.322Z,6.2
2023-01-11T00:30:31.393Z,6.2
2023-01-11T00:31:38.601Z,6.2
2023-01-11T00:32:45.380Z,6.2
2023-01-11T00:33:52.340Z,6.2
2023-01-11T00:34:59.535Z,6.2
2023-01-11T00:36:06.649Z,6.2
2023-01-11T00:37:13.635Z,6.2
2023-01-11T00:38:20.781Z,6.2
2023-01-11T00:39:32.987Z,6.1
2023-01-11T00:40:40.176Z,6.2
2023-01-11T00:41:47.296Z,6.2
2023-01-11T00:42:59.623Z,6.2
2023-01-11T00:44:11.546Z,6.2
2023-01-11T00:45:23.791Z,6.1
2023-01-11T00:46:36.083Z,6.1
2023-01-11T00:47:47.887Z,6.1
2023-01-11T00:49:00.047Z,6.1
2023-01-11T00:50:07.351Z,6.1
2023-01-11T00:51:14.206Z,6.1
2023-01-11T00:52:21.383Z,6.2
2023-01-11T00:53:28.456Z,6.2
2023-01-11T00:54:35.216Z,6.2
2023-01-11T00:55:42.536Z,6.2
2023-01-11T00:56:49.474Z,6.2
2023-01-11T00:57:56.098Z,6.1
2023-01-11T00:59:03.232Z,6.1
2023-01-11T01:00:10.220Z,6.2
2023-01-11T01:01:17.616Z,6.2
2023-01-11T01:02:24.607Z,6.2
2023-01-11T01:03:31.705Z,6.1
2023-01-11T01:04:38.873Z,6.1
2023-01-11T01:05:46.005Z,6.1
2023-01-11T01:06:53.078Z,6.1
2023-01-11T01:08:00.005Z,6.1
2023-01-11T01:09:06.947Z,6.1
2023-01-11T01:10:13.901Z,6.1
2023-01-11T01:11:21.054Z,6.2
2023-01-11T01:12:28.233Z,5.9
2023-01-11T01:13:40.004Z,6
2023-01-11T01:14:52.212Z,6.1
2023-01-11T01:15:59.513Z,6.1
2023-01-11T01:17:06.477Z,6
2023-01-11T01:18:13.458Z,6
2023-01-11T01:19:20.660Z,6
2023-01-11T01:20:27.232Z,6
2023-01-11T01:21:33.940Z,6
2023-01-11T01:22:41.043Z,6
2023-01-11T01:23:48.180Z,6
2023-01-11T01:24:57.934Z,6
2023-01-11T01:26:05.054Z,6
2023-01-11T01:27:12.067Z,6
2023-01-11T01:28:19.227Z,6
2023-01-11T01:29:26.286Z,6
2023-01-11T01:30:33.479Z,5.9
2023-01-11T01:31:40.563Z,5.9
2023-01-11T01:32:47.755Z,5.9
2023-01-11T01:33:54.915Z,5.9
2023-01-11T01:35:01.891Z,5.9
2023-01-11T01:36:09.015Z,5.9
2023-01-11T01:37:16.163Z,5.8
2023-01-11T01:38:23.266Z,5.8
2023-01-11T01:39:30.419Z,5.8
2023-01-11T01:40:37.538Z,5.8
2023-01-11T01:41:44.256Z,5.8
2023-01-11T01:42:51.383Z,5.7
2023-01-11T01:43:58.546Z,5.7
2023-01-11T01:45:05.207Z,5.7
2023-01-11T01:46:20.325Z,5.7
2023-01-11T01:47:27.429Z,5.7
2023-01-11T01:48:39.742Z,5.6
2023-01-11T01:49:46.887Z,5.6
2023-01-11T01:50:53.970Z,5.6
2023-01-11T01:52:00.699Z,5.6
2023-01-11T01:53:07.733Z,5.5
2023-01-11T01:54:14.779Z,5.5
2023-01-11T01:55:21.876Z,5.5
2023-01-11T01:56:28.975Z,5.5
2023-01-11T01:57:36.138Z,5.5
2023-01-11T01:58:43.366Z,5.4
2023-01-11T01:59:50.443Z,5.4
2023-01-11T02:00:57.598Z,5.4
2023-01-11T02:02:04.803Z,5.4
2023-01-11T02:03:11.765Z,5.4
2023-01-11T02:04:21.899Z,5.4
2023-01-11T02:05:29.294Z,5.4
2023-01-11T02:06:36.293Z,5.4
2023-01-11T02:07:43.341Z,5.4
2023-01-11T02:08:50.482Z,5.5
2023-01-11T02:10:00.178Z,5.5
2023-01-11T02:11:15.303Z,5.5
2023-01-11T02:12:30.099Z,5.5
2023-01-11T02:13:37.221Z,5.5
2023-01-11T02:14:43.983Z,5.5
2023-01-11T02:15:51.070Z,5.5
2023-01-11T02:16:58.100Z,5.5
2023-01-11T02:18:05.159Z,5.5
2023-01-11T02:19:14.729Z,5.5
2023-01-11T02:20:24.454Z,5.5
2023-01-11T02:21:41.942Z,5.5
2023-01-11T02:22:57.131Z,5.5
2023-01-11T02:24:09.263Z,5.5
2023-01-11T02:25:26.578Z,5.5
2023-01-11T02:26:38.862Z,5.5
2023-01-11T02:27:56.265Z,5.5
2023-01-11T02:29:13.373Z,5.5
2023-01-11T02:30:30.744Z,5.5
2023-01-11T02:31:42.870Z,5.5
2023-01-11T02:32:57.716Z,5.5
2023-01-11T02:34:14.863Z,5.5
2023-01-11T02:35:24.595Z,5.5
2023-01-11T02:36:34.262Z,5.5
2023-01-11T02:37:41.047Z,5.5
2023-01-11T02:38:56.212Z,5.5
2023-01-11T02:40:05.849Z,5.5
2023-01-11T02:41:12.823Z,5.5
2023-01-11T02:42:22.615Z,5.5
2023-01-11T02:43:43.079Z,5.5
2023-01-11T02:45:05.516Z,5.5
2023-01-11T02:46:23.144Z,5.6
2023-01-11T02:47:35.390Z,5.6
2023-01-11T02:48:42.454Z,5.6
2023-01-11T02:49:57.911Z,5.6
2023-01-11T02:51:14.991Z,5.6
2023-01-11T02:52:22.135Z,5.6
2023-01-11T02:53:39.611Z,5.6
2023-01-11T02:54:49.085Z,5.6
2023-01-11T02:55:56.278Z,5.6
2023-01-11T02:57:03.468Z,5.6
2023-01-11T02:58:10.395Z,5.6
2023-01-11T02:59:17.056Z,5.6
2023-01-11T03:00:24.187Z,5.6
2023-01-11T03:01:31.507Z,5.6
2023-01-11T03:02:38.599Z,5.6
2023-01-11T03:03:45.652Z,5.6
2023-01-11T03:04:52.824Z,5.6
2023-01-11T03:05:59.875Z,5.6
2023-01-11T03:07:09.399Z,5.6
2023-01-11T03:08:26.814Z,5.6
2023-01-11T03:09:33.879Z,5.6
2023-01-11T03:10:45.723Z,5.6
2023-01-11T03:12:03.047Z,5.6
2023-01-11T03:13:20.194Z,5.6
2023-01-11T03:14:26.971Z,5.6
2023-01-11T03:15:44.292Z,5.5
2023-01-11T03:16:56.435Z,5.5
2023-01-11T03:18:08.705Z,5.5
2023-01-11T03:19:23.382Z,5.5
2023-01-11T03:20:38.089Z,5.5
2023-01-11T03:21:45.306Z,5.5
2023-01-11T03:23:00.068Z,5.5
2023-01-11T03:24:06.752Z,5.5
2023-01-11T03:25:22.028Z,5.4
2023-01-11T03:26:29.411Z,5.2
2023-01-11T03:27:38.801Z,5
2023-01-11T03:28:56.078Z,5.2
2023-01-11T03:30:08.368Z,5.3
2023-01-11T03:31:25.556Z,5.3
2023-01-11T03:32:37.794Z,5.3
2023-01-11T03:33:47.452Z,5.3
2023-01-11T03:34:59.703Z,5.4
2023-01-11T03:36:14.818Z,5.4
2023-01-11T03:37:30.088Z,5.4
2023-01-11T03:38:42.320Z,5.4
2023-01-11T03:39:49.490Z,5.4
2023-01-11T03:40:59.206Z,5.4
2023-01-11T03:42:06.319Z,5.3
2023-01-11T03:43:13.324Z,5.2
2023-01-11T03:44:20.390Z,5.3
2023-01-11T03:45:27.607Z,5.2
2023-01-11T03:46:34.801Z,5.2
2023-01-11T03:47:41.312Z,5.3
2023-01-11T03:48:48.177Z,5.3
2023-01-11T03:50:05.430Z,5.4
2023-01-11T03:51:12.887Z,5.4
2023-01-11T03:52:19.953Z,5.4
2023-01-11T03:53:27.130Z,5.5
2023-01-11T03:54:33.954Z,5.5
2023-01-11T03:55:40.886Z,5.5
2023-01-11T03:56:48.041Z,5.5
2023-01-11T03:58:02.817Z,5.5
2023-01-11T03:59:09.815Z,5.5
2023-01-11T04:00:16.971Z,5.5
2023-01-11T04:01:24.164Z,5.5
2023-01-11T04:02:31.310Z,5.5
2023-01-11T04:03:43.550Z,5.4
2023-01-11T04:04:50.209Z,5.5
2023-01-11T04:05:57.311Z,5.5
2023-01-11T04:07:04.826Z,5.5
2023-01-11T04:08:11.970Z,5.5
2023-01-11T04:09:19.121Z,5.6
2023-01-11T04:10:26.213Z,5.6
2023-01-11T04:11:32.875Z,5.5
2023-01-11T04:12:40.155Z,5.6
2023-01-11T04:13:47.267Z,5.6
2023-01-11T04:14:54.258Z,5.6
2023-01-11T04:16:01.026Z,5.5
2023-01-11T04:17:08.075Z,5.5
2023-01-11T04:18:15.074Z,5.5
2023-01-11T04:19:22.579Z,5.5
2023-01-11T04:20:29.564Z,5.4
2023-01-11T04:21:39.074Z,5.3
2023-01-11T04:22:46.232Z,5.3
2023-01-11T04:23:53.467Z,5.3
2023-01-11T04:25:00.555Z,5.3
2023-01-11T04:26:07.750Z,5.3
2023-01-11T04:27:14.770Z,5.3
2023-01-11T04:28:21.827Z,5.3
2023-01-11T04:29:28.994Z,5.2
2023-01-11T04:30:36.148Z,5.3
2023-01-11T04:31:42.834Z,5.3
2023-01-11T04:32:49.420Z,5.4
2023-01-11T04:33:56.683Z,5.4
2023-01-11T04:35:03.718Z,5.4
2023-01-11T04:36:10.591Z,5.4
2023-01-11T04:37:17.797Z,5.4
2023-01-11T04:38:24.563Z,5.3
2023-01-11T04:39:31.525Z,5.3
2023-01-11T04:40:38.657Z,5.3
2023-01-11T04:41:45.844Z,5.3
2023-01-11T04:42:58.039Z,5.1
2023-01-11T04:44:05.046Z,5.1
2023-01-11T04:45:12.142Z,5.2
2023-01-11T04:46:18.783Z,5.2
2023-01-11T04:47:25.964Z,5.3
2023-01-11T04:48:33.043Z,5.3
2023-01-11T04:49:42.764Z,5.2
2023-01-11T04:50:49.770Z,5.2
2023-01-11T04:51:56.527Z,5.2
2023-01-11T04:53:03.734Z,5.2
2023-01-11T04:54:10.659Z,5.2
2023-01-11T04:55:17.845Z,5.2
2023-01-11T04:56:24.429Z,5.2
2023-01-11T04:57:31.109Z,5.2
2023-01-11T04:58:38.428Z,5.2
2023-01-11T04:59:45.369Z,5.2
2023-01-11T05:00:52.146Z,5.2
2023-01-11T05:01:59.345Z,5.2
2023-01-11T05:03:06.290Z,5.1
2023-01-11T05:04:13.697Z,4.9
2023-01-11T05:05:20.599Z,5
2023-01-11T05:06:27.712Z,5.1
2023-01-11T05:07:34.909Z,5.2
2023-01-11T05:08:41.949Z,5.2
2023-01-11T05:09:48.611Z,5.3
2023-01-11T05:10:55.750Z,5.3
2023-01-11T05:12:02.898Z,5.3
2023-01-11T05:13:10.084Z,5.3
2023-01-11T05:14:17.192Z,5.3
2023-01-11T05:15:24.154Z,5.1
2023-01-11T05:16:30.858Z,5.1
2023-01-11T05:17:37.918Z,5.2
2023-01-11T05:18:45.038Z,5.2
2023-01-11T05:19:51.821Z,5.2
2023-01-11T05:20:58.858Z,5.2
2023-01-11T05:22:06.052Z,5.1
2023-01-11T05:23:12.970Z,5.2
2023-01-11T05:24:20.103Z,5.2
2023-01-11T05:25:27.358Z,5.2
2023-01-11T05:26:34.881Z,5.2
2023-01-11T05:27:41.654Z,5.2
2023-01-11T05:28:48.727Z,5.2
2023-01-11T05:29:55.387Z,5.1
2023-01-11T05:31:02.602Z,5.2
2023-01-11T05:32:09.811Z,5.2
2023-01-11T05:33:16.779Z,5.2
2023-01-11T05:34:23.737Z,5.2
2023-01-11T05:35:30.915Z,5.2
2023-01-11T05:36:37.535Z,5.2
2023-01-11T05:37:44.748Z,5.3
2023-01-11T05:38:51.870Z,5.3
2023-01-11T05:39:58.490Z,5.3
2023-01-11T05:41:05.614Z,5.2
2023-01-11T05:42:12.568Z,5.2
2023-01-11T05:43:19.315Z,5.2
2023-01-11T05:44:26.390Z,5.2
2023-01-11T05:45:38.627Z,5.3
2023-01-11T05:46:45.939Z,5.3
2023-01-11T05:47:52.849Z,5.2
2023-01-11T05:48:59.958Z,5.2
2023-01-11T05:50:07.216Z,5.2
2023-01-11T05:51:14.095Z,5.2
2023-01-11T05:52:21.316Z,5.2
2023-01-11T05:53:28.609Z,5.2
2023-01-11T05:54:35.476Z,5.3
2023-01-11T05:55:42.106Z,5.2
2023-01-11T05:56:56.868Z,5.2
2023-01-11T05:58:04.088Z,5.1
2023-01-11T05:59:10.981Z,5.1
2023-01-11T06:00:18.059Z,5.1
2023-01-11T06:01:25.196Z,5.1
2023-01-11T06:02:32.494Z,5.1
2023-01-11T06:03:39.582Z,5.1
2023-01-11T06:04:46.637Z,5.1
2023-01-11T06:05:53.747Z,5.1
2023-01-11T06:07:01.030Z,5.1
2023-01-11T06:08:07.698Z,5.1
2023-01-11T06:09:14.600Z,5.1
2023-01-11T06:10:21.593Z,5
2023-01-11T06:11:28.249Z,5
2023-01-11T06:12:35.369Z,5.1
2023-01-11T06:13:42.594Z,5.1
2023-01-11T06:14:49.746Z,5.1
2023-01-11T06:15:56.897Z,5.1
2023-01-11T06:17:09.229Z,5.1
2023-01-11T06:18:15.996Z,5.1
2023-01-11T06:19:22.618Z,5.1
2023-01-11T06:20:29.283Z,5.1
2023-01-11T06:21:36.539Z,5.1
2023-01-11T06:22:43.610Z,5
2023-01-11T06:23:51.116Z,5
2023-01-11T06:24:58.037Z,5
2023-01-11T06:26:05.124Z,5
2023-01-11T06:27:12.026Z,5
2023-01-11T06:28:19.109Z,5
2023-01-11T06:29:26.260Z,4.9
2023-01-11T06:30:32.911Z,4.8
2023-01-11T06:31:40.008Z,4.8
2023-01-11T06:32:47.229Z,4.8
2023-01-11T06:33:53.845Z,4.8
2023-01-11T06:35:01.019Z,4.7
2023-01-11T06:36:08.198Z,4.7
2023-01-11T06:37:15.311Z,4.7
2023-01-11T06:38:22.254Z,4.7
2023-01-11T06:39:29.417Z,4.6
2023-01-11T06:40:36.559Z,4.7
2023-01-11T06:41:43.744Z,4.5
2023-01-11T06:42:50.876Z,4.5
2023-01-11T06:43:58.080Z,4.5
2023-01-11T06:45:05.204Z,4.5
2023-01-11T06:46:12.805Z,4.5
2023-01-11T06:47:19.793Z,4.4
2023-01-11T06:48:26.914Z,4.2
2023-01-11T06:49:33.670Z,4.2
2023-01-11T06:50:40.753Z,4.1
2023-01-11T06:51:47.861Z,4.3
2023-01-11T06:52:55.055Z,4.3
2023-01-11T06:54:02.194Z,4.3
2023-01-11T06:55:09.389Z,4.2
2023-01-11T06:56:16.306Z,4.2
2023-01-11T06:57:23.390Z,4.3
2023-01-11T06:58:30.553Z,4.2
2023-01-11T06:59:37.724Z,4.3
2023-01-11T07:00:44.797Z,4.2
2023-01-11T07:01:51.876Z,4.1
2023-01-11T07:02:59.130Z,4.1
2023-01-11T07:04:06.286Z,4.1
2023-01-11T07:05:13.308Z,4.1
2023-01-11T07:06:20.420Z,3.9
2023-01-11T07:07:27.501Z,3.9
2023-01-11T07:08:34.666Z,3.8
2023-01-11T07:09:41.841Z,3.9
2023-01-11T07:10:48.453Z,4
2023-01-11T07:11:55.192Z,4.1
2023-01-11T07:13:02.229Z,4
2023-01-11T07:14:09.381Z,4.1
2023-01-11T07:15:16.521Z,4
2023-01-11T07:16:23.525Z,4
2023-01-11T07:17:30.191Z,4
2023-01-11T07:18:37.275Z,4
2023-01-11T07:19:44.472Z,4
2023-01-11T07:20:51.825Z,4
2023-01-11T07:21:58.679Z,3.9
2023-01-11T07:23:05.852Z,4
2023-01-11T07:24:12.882Z,4
2023-01-11T07:25:20.038Z,4.1
2023-01-11T07:26:27.157Z,4.1
2023-01-11T07:27:34.006Z,4.1
2023-01-11T07:28:40.900Z,4.1
2023-01-11T07:29:48.080Z,4.1
2023-01-11T07:30:59.500Z,4.2
2023-01-11T07:32:01.979Z,4.1
2023-01-11T07:33:09.179Z,4
2023-01-11T07:34:16.141Z,4
2023-01-11T07:35:23.233Z,4
2023-01-11T07:36:30.357Z,4
2023-01-11T07:37:37.427Z,4
2023-01-11T07:38:44.625Z,4.1
2023-01-11T07:39:51.774Z,4.1
2023-01-11T07:40:58.344Z,4.1
2023-01-11T07:42:05.061Z,3.9
2023-01-11T07:43:17.061Z,4
2023-01-11T07:44:23.698Z,4
2023-01-11T07:45:44.501Z,4
2023-01-11T07:46:38.164Z,4.1
2023-01-11T07:47:45.317Z,4.1
2023-01-11T07:48:55.289Z,4
2023-01-11T07:50:01.984Z,4.1
2023-01-11T07:51:09.053Z,4.2
2023-01-11T07:52:16.109Z,4.3
2023-01-11T07:53:23.246Z,4.2
2023-01-11T07:54:30.381Z,4.2
2023-01-11T07:55:37.227Z,4.2
2023-01-11T07:56:44.271Z,4.2
2023-01-11T07:57:51.301Z,4.2
2023-01-11T07:59:00.944Z,4.3
2023-01-11T08:00:07.558Z,4.4
2023-01-11T08:01:15.101Z,4.3
2023-01-11T08:02:21.795Z,4.2
2023-01-11T08:03:28.962Z,4.3
2023-01-11T08:04:35.982Z,4.3
2023-01-11T08:05:42.669Z,4.3
2023-01-11T08:06:52.435Z,4.4
2023-01-11T08:07:59.478Z,4.4
2023-01-11T08:09:06.657Z,4.3
2023-01-11T08:10:13.882Z,4.4
2023-01-11T08:11:20.951Z,4.5
2023-01-11T08:12:33.165Z,4.4
2023-01-11T08:13:45.265Z,4.4
2023-01-11T08:14:57.642Z,4.5
2023-01-11T08:16:04.833Z,4.6
2023-01-11T08:17:11.767Z,4.7
2023-01-11T08:18:19.025Z,4.6
2023-01-11T08:19:25.972Z,4.5
2023-01-11T08:20:33.138Z,4.6
2023-01-11T08:21:40.304Z,4.5
2023-01-11T08:22:47.379Z,4.7
2023-01-11T08:23:54.625Z,4.8
2023-01-11T08:25:01.729Z,4.7
2023-01-11T08:26:08.910Z,4.8
2023-01-11T08:27:15.858Z,4.8
2023-01-11T08:28:23.003Z,4.7
2023-01-11T08:29:30.060Z,4.8
2023-01-11T08:30:36.895Z,4.9
2023-01-11T08:31:43.926Z,4.8
2023-01-11T08:32:51.046Z,4.8
2023-01-11T08:33:58.025Z,4.9
2023-01-11T08:35:04.769Z,4.8
2023-01-11T08:36:11.798Z,4.8
2023-01-11T08:37:19.046Z,4.7
2023-01-11T08:38:25.973Z,4.7
2023-01-11T08:39:33.088Z,4.8
2023-01-11T08:40:40.257Z,4.9
2023-01-11T08:41:46.889Z,4.9
2023-01-11T08:42:53.809Z,4.8
2023-01-11T08:44:00.762Z,4.8
2023-01-11T08:45:07.418Z,4.8
2023-01-11T08:46:14.464Z,4.8
2023-01-11T08:47:21.502Z,4.9
2023-01-11T08:48:28.742Z,4.8
2023-01-11T08:49:35.891Z,4.8
2023-01-11T08:50:42.849Z,5
2023-01-11T08:51:49.593Z,5.1
2023-01-11T08:52:56.732Z,5.2
2023-01-11T08:54:03.874Z,5.1
2023-01-11T08:55:13.818Z,5.1
2023-01-11T08:56:21.101Z,4.9
2023-01-11T08:57:28.174Z,4.9
2023-01-11T08:58:35.242Z,4.9
2023-01-11T08:59:42.330Z,4.8
2023-01-11T09:00:49.533Z,4.8
2023-01-11T09:01:56.754Z,4.8
2023-01-11T09:03:03.557Z,4.7
2023-01-11T09:04:23.656Z,4.8
2023-01-11T09:05:18.328Z,4.8
2023-01-11T09:06:24.087Z,4.8
2023-01-11T09:07:31.251Z,4.9
2023-01-11T09:08:38.365Z,5.1
2023-01-11T09:09:45.297Z,5.1
2023-01-11T09:10:52.078Z,5.1
2023-01-11T09:12:01.956Z,4.9
2023-01-11T09:13:08.906Z,4.9
2023-01-11T09:14:15.991Z,4.9
2023-01-11T09:15:22.649Z,5
2023-01-11T09:16:29.845Z,5
2023-01-11T09:17:36.973Z,5.1
2023-01-11T09:18:44.087Z,5.1
2023-01-11T09:19:51.101Z,5
2023-01-11T09:20:57.844Z,5.1
2023-01-11T09:22:05.015Z,5.2
2023-01-11T09:23:12.010Z,5.3
2023-01-11T09:24:19.015Z,5
2023-01-11T09:25:26.197Z,5.1
2023-01-11T09:26:32.928Z,5.1
2023-01-11T09:27:40.102Z,5.2
2023-01-11T09:28:47.129Z,5.2
2023-01-11T09:29:54.284Z,5.2
2023-01-11T09:31:00.940Z,5.2
2023-01-11T09:32:08.113Z,5.1
2023-01-11T09:33:15.034Z,5.2
2023-01-11T09:34:21.769Z,5.4
2023-01-11T09:35:29.077Z,5.5
2023-01-11T09:36:36.126Z,5.6
2023-01-11T09:37:43.074Z,5.7
2023-01-11T09:38:52.781Z,5.5
2023-01-11T09:39:59.839Z,5.5
2023-01-11T09:41:06.970Z,5.6
2023-01-11T09:42:24.240Z,5.5
2023-01-11T09:43:34.415Z,5.7
2023-01-11T09:44:41.549Z,5.7
2023-01-11T09:45:51.733Z,5.8
2023-01-11T09:46:58.371Z,5.7
2023-01-11T09:48:13.111Z,5.9
2023-01-11T09:49:25.570Z,6
2023-01-11T09:50:32.421Z,6.1
2023-01-11T09:51:45.193Z,6.1
2023-01-11T09:52:52.314Z,6.1
2023-01-11T09:54:02.058Z,6.1
2023-01-11T09:55:09.201Z,6.3
2023-01-11T09:56:19.194Z,6.3
2023-01-11T09:57:28.808Z,6.3
2023-01-11T09:58:44.112Z,6.4
2023-01-11T09:59:53.803Z,6.4
2023-01-11T10:01:06.642Z,6.6
2023-01-11T10:02:23.773Z,6.6
2023-01-11T10:03:36.021Z,6.5
2023-01-11T10:04:48.303Z,6.4
2023-01-11T10:06:02.858Z,6.3
2023-01-11T10:07:20.095Z,6.4
2023-01-11T10:18:24.301Z,6.8
2023-01-11T10:18:24.635Z,6.6
2023-01-11T10:18:25.148Z,6.4
2023-01-11T10:18:25.287Z,6.7
2023-01-11T10:19:40.483Z,6.7
2023-01-11T10:20:37.115Z,6.9
2023-01-11T10:21:44.205Z,7
2023-01-11T10:22:56.962Z,7
2023-01-11T10:24:09.258Z,7
2023-01-11T10:25:24.271Z,7.2
2023-01-11T10:26:36.519Z,7
2023-01-11T10:27:43.644Z,7.1
2023-01-11T10:28:55.993Z,7.3
2023-01-11T10:30:13.146Z,7.2
2023-01-11T10:31:20.353Z,7.2
2023-01-11T10:32:29.956Z,7.1
2023-01-11T10:33:45.256Z,7.1
2023-01-11T10:34:52.393Z,7.1
2023-01-11T10:36:04.700Z,7.2
2023-01-11T10:37:19.674Z,7.2
2023-01-11T10:38:34.553Z,7.3
2023-01-11T10:39:49.353Z,7.3
2023-01-11T10:41:09.709Z,7
2023-01-11T10:42:19.359Z,7.2
2023-01-11T10:43:26.487Z,7.1
2023-01-11T10:44:33.559Z,7.1
2023-01-11T10:45:45.931Z,7.3
2023-01-11T10:46:55.543Z,7.3
2023-01-11T10:48:02.714Z,7.4
2023-01-11T10:49:09.698Z,7.4
2023-01-11T10:50:26.914Z,7
2023-01-11T10:51:36.668Z,7.1
2023-01-11T10:52:43.802Z,7.2
2023-01-11T10:53:53.486Z,7.4
2023-01-11T10:55:10.829Z,7.3
2023-01-11T10:56:17.827Z,7.4
2023-01-11T10:57:27.441Z,7.5
2023-01-11T10:58:39.745Z,7.5
2023-01-11T10:59:49.322Z,7.4
2023-01-11T11:01:06.838Z,7.4
2023-01-11T11:02:22.699Z,7.5
2023-01-11T11:03:34.241Z,7.2
2023-01-11T11:04:46.493Z,7.3
2023-01-11T11:05:58.711Z,7.2
2023-01-11T11:07:05.940Z,7.1
2023-01-11T11:08:14.581Z,7.1
2023-01-11T11:09:19.947Z,7
2023-01-11T11:10:27.109Z,7.3
2023-01-11T11:11:39.405Z,7.4
2023-01-11T11:12:46.014Z,7.4
2023-01-11T11:13:58.282Z,7.5
2023-01-11T11:15:05.386Z,7.5
2023-01-11T11:16:12.416Z,7.3
2023-01-11T11:17:27.207Z,7.5
2023-01-11T11:18:34.326Z,7.5
2023-01-11T11:19:41.958Z,7.8
2023-01-11T11:20:48.162Z,7.8
2023-01-11T11:21:55.346Z,7.8
2023-01-11T11:23:02.058Z,7.6
2023-01-11T11:24:09.115Z,7.6
2023-01-11T11:25:26.253Z,7.7
2023-01-11T11:26:35.975Z,7.7
2023-01-11T11:27:42.594Z,7.6
2023-01-11T11:28:55.887Z,7.7
2023-01-11T11:30:03.228Z,7.8
2023-01-11T11:31:10.708Z,7.9
2023-01-11T11:32:17.567Z,7.9
2023-01-11T11:33:32.352Z,7.8
2023-01-11T11:34:39.641Z,7.7
2023-01-11T11:35:52.709Z,7.6
2023-01-11T11:37:02.406Z,7.3
2023-01-11T11:38:09.664Z,7.2
2023-01-11T11:39:24.309Z,7.3
2023-01-11T11:40:31.436Z,7.3
2023-01-11T11:41:38.633Z,7.4
2023-01-11T11:42:48.318Z,7.3
2023-01-11T11:43:55.410Z,7.2
2023-01-11T11:45:05.275Z,7.2
2023-01-11T11:46:15.569Z,7
2023-01-11T11:47:19.350Z,7.1
2023-01-11T11:48:26.395Z,7.2
2023-01-11T11:49:33.038Z,7.1
2023-01-11T11:50:45.351Z,7.1
2023-01-11T11:51:47.359Z,7.2
2023-01-11T11:52:54.390Z,7.4
2023-01-11T11:54:04.194Z,7.3
2023-01-11T11:55:11.197Z,7.2
2023-01-11T11:56:18.297Z,7.2
2023-01-11T11:57:33.057Z,7.3
2023-01-11T11:58:40.186Z,7.4
2023-01-11T11:59:47.311Z,7.4
2023-01-11T12:00:54.514Z,7.4
2023-01-11T12:02:01.656Z,7.6
2023-01-11T12:03:08.788Z,7.7
2023-01-11T12:04:18.272Z,7.8
2023-01-11T12:05:28.035Z,7.8
2023-01-11T12:06:35.070Z,7.6
2023-01-11T12:07:53.776Z,7.5
2023-01-11T12:08:48.813Z,7.4
2023-01-11T12:09:55.988Z,7.4
2023-01-11T12:11:03.160Z,7.7
2023-01-11T12:12:10.239Z,7.6
2023-01-11T12:13:22.966Z,7.4
2023-01-11T12:14:30.162Z,7.3
2023-01-11T12:15:37.160Z,7.3
2023-01-11T12:16:44.434Z,7.3
2023-01-11T12:17:51.461Z,7.3
2023-01-11T12:18:58.554Z,7.4
2023-01-11T12:20:05.356Z,7.4
2023-01-11T12:21:22.984Z,7.4
2023-01-11T12:22:30.042Z,7.4
2023-01-11T12:23:36.691Z,7.5
2023-01-11T12:24:43.842Z,7.6
2023-01-11T12:25:51.025Z,7.7
2023-01-11T12:27:03.248Z,7.7
2023-01-11T12:28:18.353Z,7.7
2023-01-11T12:29:28.053Z,7.5
2023-01-11T12:30:37.723Z,7.5
2023-01-11T12:31:49.973Z,7.6
2023-01-11T12:33:02.191Z,7.7
2023-01-11T12:34:19.477Z,7.6
2023-01-11T12:35:36.840Z,7.5
2023-01-11T12:36:54.108Z,7.5
2023-01-11T12:38:06.403Z,7.4
2023-01-11T12:39:23.584Z,7.4
2023-01-11T12:40:33.261Z,7.4
2023-01-11T12:41:45.683Z,7.4
2023-01-11T12:42:57.637Z,7.4
2023-01-11T12:44:09.908Z,7.4
2023-01-11T12:45:22.161Z,7.4
2023-01-11T12:46:34.247Z,7.3
2023-01-11T12:47:46.514Z,7.2
2023-01-11T12:49:03.848Z,7.1
2023-01-11T12:50:16.994Z,7.2
2023-01-11T12:51:24.262Z,7.2
2023-01-11T12:52:41.500Z,7.5
2023-01-11T12:53:53.755Z,7.5
2023-01-11T12:55:09.028Z,7.2
2023-01-11T12:56:21.097Z,7.3
2023-01-11T12:57:30.895Z,7.3
2023-01-11T12:58:45.546Z,7.3
2023-01-11T12:59:55.378Z,7.2
2023-01-11T13:01:07.599Z,7.2
2023-01-11T13:02:22.646Z,7.3
2023-01-11T13:03:39.996Z,7.2
2023-01-11T13:04:52.217Z,7.2
2023-01-11T13:06:04.976Z,7.2
2023-01-11T13:07:14.509Z,7.2
2023-01-11T13:08:29.270Z,7.3
2023-01-11T13:09:46.584Z,7.3
2023-01-11T13:11:03.943Z,7.3
2023-01-11T13:12:21.151Z,7.1
2023-01-11T13:13:33.338Z,7.1
2023-01-11T13:14:48.300Z,7
2023-01-11T13:15:55.300Z,7
2023-01-11T13:17:02.472Z,7.1
2023-01-11T13:18:19.613Z,7
2023-01-11T13:19:26.755Z,7
2023-01-11T13:20:53.659Z,7
2023-01-11T13:21:52.216Z,7.1
2023-01-11T13:22:59.269Z,7.1
2023-01-11T13:24:11.570Z,7.2
2023-01-11T13:25:18.644Z,7.2
2023-01-11T13:26:28.342Z,7.1
2023-01-11T13:27:35.487Z,7.2
2023-01-11T13:28:42.545Z,7.2
2023-01-11T13:29:49.281Z,7.3
2023-01-11T13:30:58.989Z,7.3
2023-01-11T13:32:06.009Z,7.3
2023-01-11T13:33:18.228Z,7.1
2023-01-11T13:34:25.349Z,7.3
2023-01-11T13:35:37.536Z,7.2
2023-01-11T13:36:44.179Z,7.2
2023-01-11T13:37:50.821Z,7
2023-01-11T13:39:00.499Z,7.1
2023-01-11T13:40:12.584Z,7.1
2023-01-11T13:41:22.295Z,7.2
2023-01-11T13:42:29.460Z,7.1
2023-01-11T13:43:42.091Z,7
2023-01-11T13:44:56.956Z,7
2023-01-11T13:46:07.167Z,7.1
2023-01-11T13:47:16.678Z,7
2023-01-11T13:48:34.055Z,7
2023-01-11T13:49:40.869Z,7.2
2023-01-11T13:50:56.026Z,7.2
2023-01-11T13:52:03.065Z,7.1
2023-01-11T13:53:17.780Z,6.9
2023-01-11T13:54:32.898Z,6.9
2023-01-11T13:55:44.791Z,6.9
2023-01-11T13:57:02.076Z,6.9
2023-01-11T13:58:09.217Z,6.9
2023-01-11T13:59:18.879Z,7
2023-01-11T14:00:31.157Z,6.9
2023-01-11T14:01:46.475Z,6.9
2023-01-11T14:02:56.492Z,6.9
2023-01-11T14:04:06.164Z,6.9
2023-01-11T14:05:20.896Z,7
2023-01-11T14:06:27.547Z,6.8
2023-01-11T14:07:44.798Z,6.9
2023-01-11T14:09:02.192Z,7
2023-01-11T14:10:17.472Z,7
2023-01-11T14:11:29.695Z,6.8
2023-01-11T14:12:39.262Z,6.8
2023-01-11T14:13:51.643Z,6.9
2023-01-11T14:15:11.879Z,7
2023-01-11T14:16:27.064Z,6.9
2023-01-11T14:17:44.507Z,7
2023-01-11T14:19:02.280Z,6.9
2023-01-11T14:20:11.338Z,7
2023-01-11T14:21:24.088Z,6.8
2023-01-11T14:22:36.311Z,6.7
2023-01-11T14:23:53.712Z,6.9
2023-01-11T14:25:00.671Z,6.8
2023-01-11T14:26:15.377Z,6.8
2023-01-11T14:27:32.671Z,6.8
2023-01-11T14:28:50.156Z,6.9
2023-01-11T14:30:05.255Z,6.9
2023-01-11T14:31:17.600Z,6.9
2023-01-11T14:32:34.763Z,6.8
2023-01-11T14:33:47.001Z,6.8
2023-01-11T14:34:59.263Z,6.8
2023-01-11T14:36:14.413Z,6.8
2023-01-11T14:37:29.731Z,6.7
2023-01-11T14:38:41.931Z,6.8
2023-01-11T14:39:54.307Z,6.7
2023-01-11T14:41:06.355Z,6.6
2023-01-11T14:42:30.673Z,6.6
2023-01-11T14:43:33.850Z,6.6
2023-01-11T14:44:51.237Z,6.6
2023-01-11T14:46:03.500Z,6.7
2023-01-11T14:47:13.434Z,6.6
2023-01-11T14:48:28.312Z,6.7
2023-01-11T14:49:35.320Z,6.7
2023-01-11T14:50:52.774Z,6.6
2023-01-11T14:52:07.951Z,6.6
2023-01-11T14:53:18.059Z,6.5
2023-01-11T14:54:24.744Z,6.4
2023-01-11T14:55:37.377Z,6.5
2023-01-11T14:56:44.039Z,6.4
2023-01-11T14:57:56.337Z,6.6
2023-01-11T14:59:03.378Z,6.6
2023-01-11T15:00:10.629Z,6.5
2023-01-11T15:01:22.722Z,6.5
2023-01-11T15:02:29.462Z,6.5
2023-01-11T15:03:36.520Z,6.5
2023-01-11T15:04:46.270Z,6.6
2023-01-11T15:05:56.369Z,6.6
2023-01-11T15:07:06.009Z,6.5
2023-01-11T15:08:20.749Z,6.5
2023-01-11T15:09:27.709Z,6.5
2023-01-11T15:10:45.197Z,6.5
2023-01-11T15:12:02.463Z,6.5
2023-01-11T15:13:14.611Z,6.4
2023-01-11T15:14:29.334Z,6.2
2023-01-11T15:15:36.050Z,6.2
2023-01-11T15:16:48.275Z,6.2
2023-01-11T15:18:00.635Z,6.2
2023-01-11T15:19:12.673Z,6.1
2023-01-11T15:20:29.972Z,6.1
2023-01-11T15:21:37.016Z,6.2
2023-01-11T15:22:44.290Z,6.2
2023-01-11T15:23:51.616Z,6.2
2023-01-11T15:24:58.556Z,6.4
2023-01-11T15:26:05.646Z,6.2
2023-01-11T15:27:12.743Z,6.2
2023-01-11T15:28:25.055Z,6.2
2023-01-11T15:29:40.273Z,6.2
2023-01-11T15:30:50.331Z,6.2
2023-01-11T15:32:02.699Z,6.2
2023-01-11T15:33:14.903Z,6.2
2023-01-11T15:34:21.855Z,6.3
2023-01-11T15:35:31.997Z,6.1
2023-01-11T15:36:39.245Z,6.1
2023-01-11T15:37:54.057Z,6.1
2023-01-11T15:39:06.910Z,6
2023-01-11T15:40:13.672Z,6.1
2023-01-11T15:41:23.387Z,6.1
2023-01-11T15:42:40.643Z,6.1
2023-01-11T15:43:55.541Z,6.1
2023-01-11T15:45:12.761Z,6.2
2023-01-11T15:46:30.096Z,6.2
2023-01-11T15:47:49.900Z,6.2
2023-01-11T15:49:07.481Z,6
2023-01-11T15:50:22.459Z,6
2023-01-11T15:51:37.715Z,6
2023-01-11T15:52:52.535Z,6
2023-01-11T15:54:04.823Z,6
2023-01-11T15:55:16.893Z,6.2
2023-01-11T15:56:34.244Z,6.3
2023-01-11T15:57:46.466Z,6.3
2023-01-11T15:59:03.951Z,6.1
2023-01-11T16:00:15.933Z,6.3
2023-01-11T16:01:33.222Z,6.3
2023-01-11T16:02:48.709Z,6.2
2023-01-11T16:04:00.445Z,6.2
2023-01-11T16:05:15.479Z,6.2
2023-01-11T16:06:25.172Z,6.1